DAL2577 KDTW-KEWR
Flight info
| Callsign | DAL2577 |
|---|---|
| Flight time | 1h 15m |
| Altitude | 37000 |
| Route | PAVYL3 ESSBE SLT FQM3 |
| Aircraft | A320/M-SDE3FGHIRWY/LB1 |
Departure
| Time | 2026-04-20 16:47 |
|---|---|
| Airport | Detroit Metropolitan Wayne County Airport (KDTW) |
Arrival
| Time | 2026-04-20 18:02 |
|---|---|
| Airport | Newark Liberty International Airport (KEWR) |
| Time | Latitude | Longitude | Altitude | Speed | Heading |
|---|---|---|---|---|---|
| 2026-04-20 16:22 | 42.21477 | -83.35329 | 648 ft | 0 kts | 209° |
| 2026-04-20 16:38 | 42.21478 | -83.35329 | 647 ft | 1 kts | 209° |
| 2026-04-20 16:38 | 42.21498 | -83.35313 | 647 ft | 4 kts | 209° |
| 2026-04-20 16:39 | 42.21518 | -83.35298 | 649 ft | 3 kts | 208° |
| 2026-04-20 16:39 | 42.21540 | -83.35290 | 649 ft | 4 kts | 152° |
| 2026-04-20 16:39 | 42.21550 | -83.35312 | 647 ft | 3 kts | 88° |
| 2026-04-20 16:39 | 42.21549 | -83.35336 | 647 ft | 0 kts | 88° |
| 2026-04-20 16:44 | 42.21550 | -83.35328 | 647 ft | 4 kts | 88° |
| 2026-04-20 16:44 | 42.21553 | -83.35255 | 647 ft | 12 kts | 86° |
| 2026-04-20 16:44 | 42.21549 | -83.35146 | 647 ft | 11 kts | 107° |
| 2026-04-20 16:44 | 42.21496 | -83.35084 | 647 ft | 12 kts | 150° |
| 2026-04-20 16:45 | 42.21409 | -83.35014 | 649 ft | 17 kts | 148° |
| 2026-04-20 16:45 | 42.21301 | -83.34928 | 648 ft | 19 kts | 163° |
| 2026-04-20 16:45 | 42.21186 | -83.34996 | 646 ft | 19 kts | 208° |
| 2026-04-20 16:45 | 42.21063 | -83.35088 | 647 ft | 22 kts | 209° |
| 2026-04-20 16:46 | 42.20923 | -83.35189 | 647 ft | 24 kts | 210° |
| 2026-04-20 16:46 | 42.20830 | -83.35195 | 647 ft | 11 kts | 126° |
| 2026-04-20 16:46 | 42.20824 | -83.35099 | 645 ft | 13 kts | 56° |
| 2026-04-20 16:46 | 42.20958 | -83.34994 | 644 ft | 42 kts | 29° |
| 2026-04-20 16:47 | 42.21436 | -83.34645 | 645 ft | 112 kts | 28° |
| 2026-04-20 16:47 | 42.22300 | -83.34008 | 746 ft | 155 kts | 28° |
| 2026-04-20 16:47 | 42.23211 | -83.33326 | 1471 ft | 151 kts | 28° |
| 2026-04-20 16:47 | 42.24095 | -83.32559 | 2201 ft | 154 kts | 45° |
| 2026-04-20 16:48 | 42.24802 | -83.31400 | 2688 ft | 171 kts | 48° |
| 2026-04-20 16:48 | 42.25629 | -83.30078 | 3016 ft | 196 kts | 46° |
| 2026-04-20 16:48 | 42.26579 | -83.28592 | 3351 ft | 222 kts | 46° |
| 2026-04-20 16:48 | 42.27637 | -83.26915 | 3804 ft | 247 kts | 46° |
| 2026-04-20 16:49 | 42.28784 | -83.25083 | 4485 ft | 258 kts | 47° |
| 2026-04-20 16:49 | 42.29943 | -83.23241 | 5553 ft | 259 kts | 46° |
| 2026-04-20 16:49 | 42.31123 | -83.21375 | 6437 ft | 264 kts | 46° |
| 2026-04-20 16:49 | 42.32159 | -83.19272 | 6943 ft | 276 kts | 64° |
| 2026-04-20 16:50 | 42.32573 | -83.16725 | 7830 ft | 283 kts | 85° |
| 2026-04-20 16:50 | 42.32297 | -83.14059 | 8655 ft | 293 kts | 107° |
| 2026-04-20 16:50 | 42.31516 | -83.11486 | 9469 ft | 299 kts | 111° |
| 2026-04-20 16:50 | 42.30700 | -83.08912 | 10224 ft | 307 kts | 111° |
| 2026-04-20 16:51 | 42.29824 | -83.06157 | 10530 ft | 331 kts | 111° |
| 2026-04-20 16:51 | 42.28881 | -83.03194 | 10781 ft | 355 kts | 111° |
| 2026-04-20 16:51 | 42.27875 | -83.00027 | 10970 ft | 378 kts | 111° |
| 2026-04-20 16:51 | 42.26802 | -82.96724 | 11432 ft | 390 kts | 112° |
| 2026-04-20 16:52 | 42.25634 | -82.93378 | 12060 ft | 396 kts | 114° |
| 2026-04-20 16:52 | 42.24409 | -82.90021 | 12717 ft | 400 kts | 114° |
| 2026-04-20 16:52 | 42.23580 | -82.87786 | 13154 ft | 403 kts | 114° |
| 2026-04-20 16:52 | 42.22316 | -82.84390 | 13777 ft | 407 kts | 114° |
| 2026-04-20 16:53 | 42.21044 | -82.80954 | 14380 ft | 412 kts | 114° |
| 2026-04-20 16:53 | 42.19767 | -82.77471 | 14983 ft | 416 kts | 114° |
| 2026-04-20 16:53 | 42.18482 | -82.73954 | 15580 ft | 420 kts | 114° |
| 2026-04-20 16:53 | 42.17190 | -82.70399 | 16156 ft | 425 kts | 113° |
| 2026-04-20 16:54 | 42.15927 | -82.66780 | 16733 ft | 427 kts | 109° |
| 2026-04-20 16:54 | 42.14996 | -82.62975 | 17278 ft | 428 kts | 100° |
| 2026-04-20 16:54 | 42.14475 | -82.59030 | 17816 ft | 427 kts | 91° |
| 2026-04-20 16:54 | 42.14352 | -82.55034 | 18348 ft | 427 kts | 85° |
| 2026-04-20 16:55 | 42.14337 | -82.51012 | 18853 ft | 431 kts | 85° |
| 2026-04-20 16:55 | 42.14317 | -82.46958 | 19347 ft | 434 kts | 86° |
| 2026-04-20 16:55 | 42.14051 | -82.42873 | 19810 ft | 442 kts | 95° |
| 2026-04-20 16:55 | 42.13534 | -82.38770 | 20266 ft | 446 kts | 96° |
| 2026-04-20 16:56 | 42.13010 | -82.34638 | 20706 ft | 449 kts | 96° |
| 2026-04-20 16:56 | 42.12485 | -82.30479 | 21137 ft | 451 kts | 96° |
| 2026-04-20 16:56 | 42.11958 | -82.26294 | 21541 ft | 454 kts | 96° |
| 2026-04-20 16:56 | 42.11432 | -82.22083 | 21936 ft | 457 kts | 96° |
| 2026-04-20 16:57 | 42.10903 | -82.17850 | 22301 ft | 460 kts | 96° |
| 2026-04-20 16:57 | 42.10373 | -82.13643 | 22647 ft | 463 kts | 96° |
| 2026-04-20 16:57 | 42.09828 | -82.09353 | 22991 ft | 466 kts | 96° |
| 2026-04-20 16:57 | 42.09279 | -82.05047 | 23347 ft | 468 kts | 96° |
| 2026-04-20 16:58 | 42.08723 | -82.00722 | 23678 ft | 471 kts | 96° |
| 2026-04-20 16:58 | 42.08161 | -81.96368 | 23990 ft | 473 kts | 96° |
| 2026-04-20 16:58 | 42.07597 | -81.91989 | 24298 ft | 476 kts | 96° |
| 2026-04-20 16:58 | 42.07031 | -81.87592 | 24605 ft | 478 kts | 96° |
| 2026-04-20 16:59 | 42.06458 | -81.83175 | 24888 ft | 481 kts | 96° |
| 2026-04-20 16:59 | 42.05877 | -81.78729 | 25152 ft | 484 kts | 96° |
| 2026-04-20 16:59 | 42.05300 | -81.74257 | 25415 ft | 486 kts | 96° |
| 2026-04-20 16:59 | 42.04730 | -81.69770 | 25674 ft | 488 kts | 96° |
| 2026-04-20 17:00 | 42.03599 | -81.60729 | 26154 ft | 492 kts | 96° |
| 2026-04-20 17:00 | 42.03029 | -81.56177 | 26387 ft | 494 kts | 96° |
| 2026-04-20 17:00 | 42.02454 | -81.51608 | 26612 ft | 496 kts | 96° |
| 2026-04-20 17:01 | 42.01869 | -81.47022 | 26825 ft | 498 kts | 96° |
| 2026-04-20 17:01 | 42.01275 | -81.42424 | 27016 ft | 500 kts | 96° |
| 2026-04-20 17:01 | 42.00675 | -81.37816 | 27200 ft | 501 kts | 96° |
| 2026-04-20 17:01 | 42.00076 | -81.33203 | 27442 ft | 501 kts | 96° |
| 2026-04-20 17:02 | 41.99485 | -81.28648 | 27688 ft | 501 kts | 97° |
| 2026-04-20 17:02 | 41.98884 | -81.24013 | 27841 ft | 504 kts | 97° |
| 2026-04-20 17:02 | 41.98281 | -81.19363 | 28037 ft | 506 kts | 97° |
| 2026-04-20 17:02 | 41.97673 | -81.14699 | 28278 ft | 506 kts | 97° |
| 2026-04-20 17:03 | 41.97059 | -81.10034 | 28497 ft | 507 kts | 97° |
| 2026-04-20 17:03 | 41.96440 | -81.05364 | 28744 ft | 507 kts | 97° |
| 2026-04-20 17:03 | 41.95820 | -81.00704 | 28998 ft | 507 kts | 97° |
| 2026-04-20 17:03 | 41.95201 | -80.96038 | 29243 ft | 507 kts | 97° |
| 2026-04-20 17:04 | 41.94580 | -80.91378 | 29487 ft | 507 kts | 98° |
| 2026-04-20 17:04 | 41.93954 | -80.86719 | 29734 ft | 507 kts | 98° |
| 2026-04-20 17:04 | 41.93323 | -80.82049 | 29982 ft | 507 kts | 98° |
| 2026-04-20 17:04 | 41.92693 | -80.77384 | 30222 ft | 507 kts | 98° |
| 2026-04-20 17:05 | 41.92066 | -80.72727 | 30483 ft | 507 kts | 98° |
| 2026-04-20 17:05 | 41.91436 | -80.68065 | 30743 ft | 507 kts | 98° |
| 2026-04-20 17:05 | 41.90812 | -80.63469 | 30997 ft | 507 kts | 98° |
| 2026-04-20 17:05 | 41.90171 | -80.58759 | 31262 ft | 506 kts | 98° |
| 2026-04-20 17:06 | 41.89538 | -80.54106 | 31516 ft | 506 kts | 98° |
| 2026-04-20 17:06 | 41.88904 | -80.49464 | 31770 ft | 506 kts | 98° |
| 2026-04-20 17:06 | 41.88273 | -80.44878 | 32018 ft | 506 kts | 99° |
| 2026-04-20 17:06 | 41.87630 | -80.40228 | 32269 ft | 506 kts | 99° |
| 2026-04-20 17:07 | 41.86989 | -80.35590 | 32509 ft | 506 kts | 99° |
| 2026-04-20 17:07 | 41.86345 | -80.30932 | 32759 ft | 506 kts | 99° |
| 2026-04-20 17:07 | 41.85701 | -80.26295 | 33003 ft | 506 kts | 99° |
| 2026-04-20 17:07 | 41.85054 | -80.21659 | 33240 ft | 506 kts | 99° |
| 2026-04-20 17:08 | 41.84405 | -80.17013 | 33471 ft | 507 kts | 99° |
| 2026-04-20 17:08 | 41.83753 | -80.12375 | 33695 ft | 507 kts | 99° |
| 2026-04-20 17:08 | 41.83098 | -80.07736 | 33912 ft | 507 kts | 99° |
| 2026-04-20 17:08 | 41.82443 | -80.03086 | 34142 ft | 507 kts | 99° |
| 2026-04-20 17:09 | 41.81786 | -79.98443 | 34381 ft | 507 kts | 99° |
| 2026-04-20 17:09 | 41.81131 | -79.93855 | 34612 ft | 508 kts | 99° |
| 2026-04-20 17:09 | 41.80468 | -79.89211 | 34853 ft | 508 kts | 99° |
| 2026-04-20 17:09 | 41.79803 | -79.84561 | 35089 ft | 508 kts | 100° |
| 2026-04-20 17:10 | 41.79135 | -79.79919 | 35318 ft | 508 kts | 100° |
| 2026-04-20 17:10 | 41.78468 | -79.75277 | 35533 ft | 508 kts | 100° |
| 2026-04-20 17:10 | 41.77798 | -79.70617 | 35729 ft | 508 kts | 100° |
| 2026-04-20 17:10 | 41.77125 | -79.65968 | 35918 ft | 508 kts | 100° |
| 2026-04-20 17:11 | 41.76450 | -79.61331 | 36084 ft | 509 kts | 100° |
| 2026-04-20 17:11 | 41.75771 | -79.56672 | 36244 ft | 509 kts | 100° |
| 2026-04-20 17:11 | 41.75089 | -79.52019 | 36406 ft | 510 kts | 101° |
| 2026-04-20 17:11 | 41.74405 | -79.47356 | 36558 ft | 510 kts | 101° |
| 2026-04-20 17:12 | 41.73717 | -79.42681 | 36737 ft | 510 kts | 101° |
| 2026-04-20 17:12 | 41.73030 | -79.38033 | 36972 ft | 507 kts | 101° |
| 2026-04-20 17:12 | 41.72357 | -79.33477 | 37212 ft | 505 kts | 101° |
| 2026-04-20 17:12 | 41.71675 | -79.28870 | 37336 ft | 505 kts | 101° |
| 2026-04-20 17:13 | 41.70989 | -79.24254 | 37353 ft | 507 kts | 101° |
| 2026-04-20 17:13 | 41.69608 | -79.15001 | 37321 ft | 507 kts | 101° |
| 2026-04-20 17:14 | 41.68222 | -79.05748 | 37320 ft | 507 kts | 101° |
| 2026-04-20 17:14 | 41.66824 | -78.96502 | 37312 ft | 507 kts | 102° |
| 2026-04-20 17:15 | 41.65415 | -78.87249 | 37311 ft | 507 kts | 102° |
| 2026-04-20 17:15 | 41.64008 | -78.78058 | 37312 ft | 507 kts | 102° |
| 2026-04-20 17:16 | 41.62589 | -78.68813 | 37313 ft | 507 kts | 102° |
| 2026-04-20 17:16 | 41.61160 | -78.59563 | 37310 ft | 508 kts | 102° |
| 2026-04-20 17:17 | 41.59723 | -78.50328 | 37306 ft | 508 kts | 102° |
| 2026-04-20 17:17 | 41.58269 | -78.41095 | 37312 ft | 508 kts | 103° |
| 2026-04-20 17:18 | 41.56818 | -78.31871 | 37316 ft | 508 kts | 103° |
| 2026-04-20 17:18 | 41.55385 | -78.22699 | 37313 ft | 508 kts | 103° |
| 2026-04-20 17:19 | 41.53938 | -78.13470 | 37319 ft | 507 kts | 102° |
| 2026-04-20 17:19 | 41.52510 | -78.04229 | 37278 ft | 506 kts | 103° |
| 2026-04-20 17:19 | 41.51764 | -77.99650 | 36623 ft | 505 kts | 103° |
| 2026-04-20 17:20 | 41.51007 | -77.95074 | 35853 ft | 504 kts | 103° |
| 2026-04-20 17:20 | 41.50289 | -77.90503 | 35000 ft | 505 kts | 102° |
| 2026-04-20 17:20 | 41.49625 | -77.85950 | 34079 ft | 508 kts | 102° |
| 2026-04-20 17:20 | 41.48986 | -77.81312 | 33550 ft | 508 kts | 101° |
| 2026-04-20 17:21 | 41.48362 | -77.76670 | 33318 ft | 510 kts | 101° |
| 2026-04-20 17:21 | 41.47094 | -77.67364 | 33285 ft | 511 kts | 102° |
| 2026-04-20 17:22 | 41.45767 | -77.58055 | 33276 ft | 511 kts | 102° |
| 2026-04-20 17:22 | 41.44410 | -77.48735 | 33285 ft | 512 kts | 102° |
| 2026-04-20 17:23 | 41.43052 | -77.39425 | 33284 ft | 512 kts | 102° |
| 2026-04-20 17:23 | 41.41690 | -77.30095 | 33286 ft | 513 kts | 102° |
| 2026-04-20 17:24 | 41.40326 | -77.20759 | 33285 ft | 513 kts | 103° |
| 2026-04-20 17:24 | 41.38954 | -77.11477 | 33285 ft | 515 kts | 103° |
| 2026-04-20 17:25 | 41.37562 | -77.02132 | 33284 ft | 515 kts | 103° |
| 2026-04-20 17:25 | 41.36160 | -76.92780 | 33283 ft | 515 kts | 103° |
| 2026-04-20 17:26 | 41.34747 | -76.83419 | 33283 ft | 515 kts | 103° |
| 2026-04-20 17:26 | 41.33016 | -76.74243 | 33158 ft | 513 kts | 112° |
| 2026-04-20 17:26 | 41.31831 | -76.69777 | 32907 ft | 512 kts | 112° |
| 2026-04-20 17:27 | 41.30633 | -76.65320 | 32653 ft | 512 kts | 112° |
| 2026-04-20 17:27 | 41.29431 | -76.60868 | 32246 ft | 511 kts | 113° |
| 2026-04-20 17:27 | 41.28223 | -76.56396 | 30989 ft | 517 kts | 113° |
| 2026-04-20 17:27 | 41.27007 | -76.51886 | 29786 ft | 520 kts | 113° |
| 2026-04-20 17:28 | 41.25790 | -76.47355 | 28557 ft | 520 kts | 113° |
| 2026-04-20 17:28 | 41.24575 | -76.42829 | 27237 ft | 520 kts | 112° |
| 2026-04-20 17:28 | 41.23359 | -76.38305 | 25951 ft | 518 kts | 112° |
| 2026-04-20 17:28 | 41.22153 | -76.33827 | 24570 ft | 508 kts | 111° |
| 2026-04-20 17:29 | 41.20977 | -76.29475 | 23311 ft | 494 kts | 111° |
| 2026-04-20 17:29 | 41.19836 | -76.25267 | 22427 ft | 474 kts | 112° |
| 2026-04-20 17:29 | 41.18733 | -76.21212 | 21534 ft | 459 kts | 112° |
| 2026-04-20 17:29 | 41.17657 | -76.17265 | 20722 ft | 453 kts | 112° |
| 2026-04-20 17:30 | 41.16587 | -76.13352 | 20017 ft | 449 kts | 112° |
| 2026-04-20 17:30 | 41.15523 | -76.09473 | 19150 ft | 449 kts | 112° |
| 2026-04-20 17:30 | 41.14441 | -76.05538 | 18521 ft | 456 kts | 112° |
| 2026-04-20 17:30 | 41.13365 | -76.01617 | 18296 ft | 458 kts | 112° |
| 2026-04-20 17:31 | 41.12277 | -75.97655 | 18242 ft | 457 kts | 112° |
| 2026-04-20 17:31 | 41.11188 | -75.93686 | 18258 ft | 458 kts | 112° |
| 2026-04-20 17:31 | 41.10098 | -75.89715 | 18254 ft | 458 kts | 112° |
| 2026-04-20 17:31 | 41.09007 | -75.85744 | 18256 ft | 458 kts | 112° |
| 2026-04-20 17:32 | 41.07911 | -75.81776 | 18257 ft | 458 kts | 112° |
| 2026-04-20 17:32 | 41.06809 | -75.77814 | 18258 ft | 458 kts | 112° |
| 2026-04-20 17:32 | 41.05707 | -75.73850 | 18254 ft | 458 kts | 112° |
| 2026-04-20 17:32 | 41.04609 | -75.69891 | 17855 ft | 453 kts | 112° |
| 2026-04-20 17:33 | 41.03537 | -75.66022 | 16376 ft | 446 kts | 113° |
| 2026-04-20 17:33 | 41.02470 | -75.62188 | 14943 ft | 440 kts | 113° |
| 2026-04-20 17:33 | 41.01434 | -75.58470 | 13611 ft | 431 kts | 112° |
| 2026-04-20 17:33 | 41.00401 | -75.54769 | 12554 ft | 433 kts | 113° |
| 2026-04-20 17:34 | 40.99371 | -75.51086 | 12179 ft | 419 kts | 113° |
| 2026-04-20 17:34 | 40.98387 | -75.47548 | 12054 ft | 399 kts | 113° |
| 2026-04-20 17:34 | 40.97447 | -75.44180 | 11924 ft | 381 kts | 113° |
| 2026-04-20 17:34 | 40.96545 | -75.40966 | 11800 ft | 364 kts | 113° |
| 2026-04-20 17:35 | 40.95681 | -75.37889 | 11671 ft | 350 kts | 113° |
| 2026-04-20 17:35 | 40.94849 | -75.34928 | 11544 ft | 337 kts | 114° |
| 2026-04-20 17:35 | 40.94045 | -75.32070 | 11419 ft | 326 kts | 113° |
| 2026-04-20 17:35 | 40.93266 | -75.29301 | 11185 ft | 318 kts | 114° |
| 2026-04-20 17:36 | 40.92492 | -75.26568 | 10860 ft | 316 kts | 113° |
| 2026-04-20 17:36 | 40.91728 | -75.23870 | 10569 ft | 312 kts | 113° |
| 2026-04-20 17:36 | 40.90977 | -75.21220 | 10451 ft | 307 kts | 113° |
| 2026-04-20 17:36 | 40.90225 | -75.18576 | 10325 ft | 307 kts | 113° |
| 2026-04-20 17:37 | 40.89473 | -75.15933 | 10189 ft | 306 kts | 113° |
| 2026-04-20 17:37 | 40.88728 | -75.13310 | 10066 ft | 305 kts | 112° |
| 2026-04-20 17:37 | 40.87984 | -75.10681 | 9813 ft | 306 kts | 112° |
| 2026-04-20 17:37 | 40.87241 | -75.08048 | 9413 ft | 305 kts | 112° |
| 2026-04-20 17:38 | 40.86517 | -75.05474 | 9018 ft | 303 kts | 112° |
| 2026-04-20 17:38 | 40.85785 | -75.02877 | 8672 ft | 299 kts | 112° |
| 2026-04-20 17:38 | 40.85054 | -75.00299 | 8289 ft | 298 kts | 112° |
| 2026-04-20 17:38 | 40.84329 | -74.97744 | 7867 ft | 296 kts | 112° |
| 2026-04-20 17:39 | 40.83611 | -74.95215 | 7449 ft | 293 kts | 112° |
| 2026-04-20 17:39 | 40.82901 | -74.92708 | 7047 ft | 291 kts | 112° |
| 2026-04-20 17:39 | 40.81901 | -74.90446 | 6857 ft | 281 kts | 133° |
| 2026-04-20 17:39 | 40.80621 | -74.88490 | 6785 ft | 281 kts | 133° |
| 2026-04-20 17:40 | 40.79342 | -74.86544 | 6708 ft | 281 kts | 133° |
| 2026-04-20 17:40 | 40.78062 | -74.84597 | 6612 ft | 280 kts | 133° |
| 2026-04-20 17:40 | 40.76787 | -74.82657 | 6512 ft | 280 kts | 133° |
| 2026-04-20 17:40 | 40.75510 | -74.80725 | 6418 ft | 279 kts | 133° |
| 2026-04-20 17:41 | 40.74231 | -74.78795 | 6319 ft | 279 kts | 133° |
| 2026-04-20 17:41 | 40.72954 | -74.76864 | 6215 ft | 279 kts | 133° |
| 2026-04-20 17:41 | 40.71702 | -74.74966 | 6099 ft | 277 kts | 133° |
| 2026-04-20 17:41 | 40.70437 | -74.73048 | 6023 ft | 277 kts | 133° |
| 2026-04-20 17:42 | 40.69168 | -74.71131 | 5928 ft | 277 kts | 133° |
| 2026-04-20 17:42 | 40.67903 | -74.69224 | 5826 ft | 276 kts | 133° |
| 2026-04-20 17:42 | 40.67050 | -74.67942 | 5758 ft | 276 kts | 133° |
| 2026-04-20 17:42 | 40.65375 | -74.65421 | 5633 ft | 275 kts | 133° |
| 2026-04-20 17:43 | 40.64545 | -74.64168 | 5565 ft | 274 kts | 133° |
| 2026-04-20 17:43 | 40.63287 | -74.62276 | 5469 ft | 274 kts | 133° |
| 2026-04-20 17:43 | 40.62032 | -74.60389 | 5374 ft | 274 kts | 133° |
| 2026-04-20 17:43 | 40.60779 | -74.58505 | 5278 ft | 273 kts | 133° |
| 2026-04-20 17:44 | 40.59523 | -74.56621 | 5183 ft | 273 kts | 133° |
| 2026-04-20 17:44 | 40.58271 | -74.54740 | 5081 ft | 273 kts | 133° |
| 2026-04-20 17:44 | 40.57023 | -74.52862 | 4989 ft | 272 kts | 133° |
| 2026-04-20 17:44 | 40.55775 | -74.50989 | 4888 ft | 271 kts | 133° |
| 2026-04-20 17:45 | 40.54531 | -74.49125 | 4804 ft | 271 kts | 133° |
| 2026-04-20 17:45 | 40.53288 | -74.47262 | 4708 ft | 271 kts | 133° |
| 2026-04-20 17:45 | 40.52044 | -74.45399 | 4615 ft | 270 kts | 133° |
| 2026-04-20 17:45 | 40.50809 | -74.43543 | 4517 ft | 270 kts | 131° |
| 2026-04-20 17:46 | 40.49821 | -74.41444 | 4423 ft | 271 kts | 113° |
| 2026-04-20 17:46 | 40.49366 | -74.39042 | 4328 ft | 272 kts | 95° |
| 2026-04-20 17:46 | 40.49486 | -74.36575 | 4232 ft | 271 kts | 76° |
| 2026-04-20 17:46 | 40.50009 | -74.34284 | 4139 ft | 257 kts | 72° |
| 2026-04-20 17:47 | 40.50529 | -74.32103 | 4049 ft | 244 kts | 72° |
| 2026-04-20 17:47 | 40.51025 | -74.30026 | 3965 ft | 232 kts | 69° |
| 2026-04-20 17:47 | 40.51798 | -74.28201 | 3882 ft | 227 kts | 48° |
| 2026-04-20 17:47 | 40.52968 | -74.26834 | 3796 ft | 224 kts | 29° |
| 2026-04-20 17:48 | 40.54355 | -74.25919 | 3717 ft | 222 kts | 23° |
| 2026-04-20 17:48 | 40.55731 | -74.25051 | 3627 ft | 214 kts | 23° |
| 2026-04-20 17:48 | 40.57040 | -74.24223 | 3561 ft | 204 kts | 23° |
| 2026-04-20 17:48 | 40.58273 | -74.23442 | 3519 ft | 190 kts | 23° |
| 2026-04-20 17:49 | 40.59431 | -74.22708 | 3432 ft | 181 kts | 22° |
| 2026-04-20 17:49 | 40.60563 | -74.21994 | 3372 ft | 179 kts | 23° |
| 2026-04-20 17:49 | 40.61632 | -74.21133 | 3299 ft | 181 kts | 34° |
| 2026-04-20 17:49 | 40.62559 | -74.20016 | 3237 ft | 182 kts | 45° |
| 2026-04-20 17:50 | 40.63295 | -74.18722 | 3174 ft | 170 kts | 56° |
| 2026-04-20 17:50 | 40.63804 | -74.17389 | 3105 ft | 158 kts | 66° |
| 2026-04-20 17:50 | 40.64124 | -74.16034 | 3079 ft | 153 kts | 75° |
| 2026-04-20 17:50 | 40.64283 | -74.14659 | 3007 ft | 152 kts | 83° |
| 2026-04-20 17:51 | 40.64388 | -74.13292 | 2784 ft | 151 kts | 83° |
| 2026-04-20 17:51 | 40.64495 | -74.11916 | 2568 ft | 151 kts | 82° |
| 2026-04-20 17:51 | 40.64601 | -74.10550 | 2360 ft | 150 kts | 82° |
| 2026-04-20 17:51 | 40.64898 | -74.09253 | 2150 ft | 147 kts | 57° |
| 2026-04-20 17:52 | 40.65537 | -74.08242 | 1953 ft | 142 kts | 34° |
| 2026-04-20 17:52 | 40.66389 | -74.07635 | 1749 ft | 138 kts | 12° |
| 2026-04-20 17:52 | 40.67314 | -74.07474 | 1579 ft | 132 kts | 352° |
| 2026-04-20 17:52 | 40.68192 | -74.07728 | 1403 ft | 128 kts | 333° |
| 2026-04-20 17:53 | 40.68932 | -74.08336 | 1225 ft | 124 kts | 316° |
| 2026-04-20 17:53 | 40.69464 | -74.09205 | 1050 ft | 123 kts | 299° |
| 2026-04-20 17:53 | 40.69756 | -74.10266 | 888 ft | 124 kts | 282° |
| 2026-04-20 17:53 | 40.69821 | -74.11399 | 690 ft | 124 kts | 275° |
| 2026-04-20 17:54 | 40.69901 | -74.12531 | 513 ft | 124 kts | 278° |
| 2026-04-20 17:54 | 40.69976 | -74.13666 | 358 ft | 124 kts | 279° |
| 2026-04-20 17:54 | 40.70081 | -74.14958 | 137 ft | 152 kts | 274° |
| 2026-04-20 17:54 | 40.70172 | -74.16320 | 118 ft | 148 kts | 272° |
| 2026-04-20 17:55 | 40.70205 | -74.17801 | 585 ft | 173 kts | 274° |
| 2026-04-20 17:55 | 40.70415 | -74.19388 | 1568 ft | 175 kts | 286° |
| 2026-04-20 17:55 | 40.70776 | -74.20928 | 2367 ft | 185 kts | 288° |
| 2026-04-20 17:55 | 40.71190 | -74.22723 | 2521 ft | 228 kts | 281° |
| 2026-04-20 17:56 | 40.71299 | -74.24762 | 2676 ft | 215 kts | 265° |
| 2026-04-20 17:56 | 40.70864 | -74.26583 | 2793 ft | 210 kts | 239° |
| 2026-04-20 17:56 | 40.69764 | -74.27859 | 2853 ft | 218 kts | 204° |
| 2026-04-20 17:56 | 40.68268 | -74.28009 | 2770 ft | 220 kts | 165° |
| 2026-04-20 17:57 | 40.66988 | -74.26926 | 2828 ft | 221 kts | 131° |
| 2026-04-20 17:57 | 40.66136 | -74.25250 | 2550 ft | 221 kts | 119° |
| 2026-04-20 17:57 | 40.65481 | -74.23437 | 2337 ft | 215 kts | 112° |
| 2026-04-20 17:57 | 40.64935 | -74.21610 | 2026 ft | 216 kts | 108° |
| 2026-04-20 17:58 | 40.64590 | -74.19738 | 1963 ft | 204 kts | 98° |
| 2026-04-20 17:58 | 40.64411 | -74.17937 | 1895 ft | 191 kts | 94° |
| 2026-04-20 17:58 | 40.64286 | -74.16217 | 1920 ft | 187 kts | 94° |
| 2026-04-20 17:58 | 40.64220 | -74.14582 | 1934 ft | 165 kts | 85° |
| 2026-04-20 17:59 | 40.64361 | -74.13139 | 1970 ft | 155 kts | 78° |
| 2026-04-20 17:59 | 40.64510 | -74.11756 | 1937 ft | 151 kts | 80° |
| 2026-04-20 17:59 | 40.64628 | -74.10391 | 1977 ft | 150 kts | 80° |
| 2026-04-20 17:59 | 40.64959 | -74.09118 | 1976 ft | 146 kts | 54° |
| 2026-04-20 18:00 | 40.65610 | -74.08159 | 1937 ft | 142 kts | 32° |
| 2026-04-20 18:00 | 40.66470 | -74.07589 | 1748 ft | 136 kts | 9° |
| 2026-04-20 18:00 | 40.67392 | -74.07465 | 1582 ft | 131 kts | 352° |
| 2026-04-20 18:00 | 40.68259 | -74.07754 | 1416 ft | 127 kts | 332° |
| 2026-04-20 18:01 | 40.68975 | -74.08391 | 1225 ft | 123 kts | 313° |
| 2026-04-20 18:01 | 40.69478 | -74.09284 | 1039 ft | 122 kts | 297° |
| 2026-04-20 18:01 | 40.69755 | -74.10342 | 876 ft | 123 kts | 281° |
| 2026-04-20 18:01 | 40.69834 | -74.11471 | 698 ft | 123 kts | 277° |
| 2026-04-20 18:02 | 40.69908 | -74.12598 | 547 ft | 124 kts | 277° |
| 2026-04-20 18:02 | 40.69992 | -74.13729 | 384 ft | 124 kts | 271° |
| 2026-04-20 18:02 | 40.70063 | -74.14891 | 99 ft | 130 kts | 274° |
| 2026-04-20 18:02 | 40.70085 | -74.15218 | 19 ft | 10 kts | 273° |
| 2026-04-20 18:03 | 40.70086 | -74.15290 | 21 ft | 6 kts | 266° |